Joaquin, Texas
Current Conditions -  °F | °C
As of 5:56 PM on Sunday 21 Dec 2014 (Local Time) from KSHV Reporting Station
Scattered Clouds Scattered Clouds  
Wind Chill: 52°   Ceiling: Unl
Heat Index: 52°   Visibility: 10mi
Dew Point: 45°   Wind: 6mph
Humidity: 77%   Direction: 140°SE
Pressure: 29.92"   Gusts: NA
Location:  31.97°N, 94.05°W
Report Text: KSHV 212356Z 14005KT 10SM SCT032 SCT260 11/07 A2992 RMK AO2 SLP130 T01110072 10156 20106 58015 $
Loading
Personal Weather Stations






























Interactive Weather Map New forecast layout! Learn more

10-Day Weather Forecast

Advertisements
Track Severe Weather on mobile